Time;durP1;ratioP1;P1;durP2;ratioP2;P2;SDS_P1;SDS_P2;PMS_P1;PMS_P2;Temp;Humidity;BMP_temperature;BMP_pressure;BME280_temperature;BME280_humidity;BME280_pressure;Samples;Min_cycle;Max_cycle;Signal;HPM_P1;HPM_P2
2023/07/20 00:00:53;;;;;;;;;5.00;2.00;;;;;22.10;98.71;101405.28;5035825;28;53006;-85
2023/07/20 00:03:22;;;;;;;;;3.00;2.00;;;;;22.07;99.47;101402.69;5029798;28;45491;-85
2023/07/20 00:05:48;;;;;;;;;4.00;1.00;;;;;22.00;99.27;101398.38;5033931;28;45566;-87
2023/07/20 00:08:14;;;;;;;;;3.00;1.00;;;;;22.04;99.53;101402.78;5028446;28;45789;-85
2023/07/20 00:10:40;;;;;;;;;2.33;2.33;;;;;22.00;99.72;101407.38;5028848;28;45248;-86
2023/07/20 00:13:06;;;;;;;;;2.33;2.33;;;;;22.00;100.00;101401.09;5035562;28;45373;-84
2023/07/20 00:15:31;;;;;;;;;2.00;2.00;;;;;21.94;100.00;101405.72;5016582;28;63222;-84
2023/07/20 00:17:56;;;;;;;;;2.33;2.33;;;;;21.94;100.00;101411.13;5025664;28;67321;-85
2023/07/20 00:20:24;;;;;;;;;4.00;3.00;;;;;21.91;100.00;101410.28;5034029;28;45559;-85
2023/07/20 00:22:51;;;;;;;;;4.33;3.00;;;;;21.87;100.00;101401.41;5038924;28;45308;-84
2023/07/20 00:25:16;;;;;;;;;2.33;2.33;;;;;21.85;100.00;101402.41;5037449;28;47664;-87
2023/07/20 00:27:41;;;;;;;;;0.00;0.00;;;;;21.85;100.00;101411.34;5031324;28;45569;-84
2023/07/20 00:30:07;;;;;;;;;2.00;2.00;;;;;21.83;100.00;101409.59;5020171;28;55929;-85
2023/07/20 00:32:33;;;;;;;;;2.67;2.67;;;;;21.82;100.00;101410.53;5037728;28;45288;-85
2023/07/20 00:34:58;;;;;;;;;3.67;2.00;;;;;21.77;100.00;101410.66;5036831;28;66125;-85
2023/07/20 00:37:23;;;;;;;;;2.33;2.00;;;;;21.74;100.00;101408.06;5027153;28;59720;-85
2023/07/20 00:39:48;;;;;;;;;3.00;1.67;;;;;21.70;100.00;101411.75;5037316;28;49704;-88
2023/07/20 00:42:14;;;;;;;;;2.67;2.67;;;;;21.65;100.00;101406.47;5036878;28;55126;-84
2023/07/20 00:44:39;;;;;;;;;2.00;2.00;;;;;21.63;100.00;101402.09;5036549;28;56283;-85
2023/07/20 00:47:05;;;;;;;;;2.33;2.33;;;;;21.64;100.00;101409.22;5020741;28;46189;-85
2023/07/20 00:49:31;;;;;;;;;2.33;2.33;;;;;21.61;100.00;101404.78;5036894;28;45412;-84
2023/07/20 00:51:57;;;;;;;;;3.33;3.33;;;;;21.60;100.00;101407.53;5038562;28;45367;-84
2023/07/20 00:54:22;;;;;;;;;2.00;2.00;;;;;21.56;100.00;101405.81;5027268;28;46371;-84
2023/07/20 00:56:48;;;;;;;;;3.00;3.00;;;;;21.55;100.00;101401.38;5038488;28;45540;-84
2023/07/20 00:59:13;;;;;;;;;3.00;3.00;;;;;21.52;100.00;101405.03;5036392;28;58672;-85
2023/07/20 01:01:39;;;;;;;;;5.00;3.00;;;;;21.50;100.00;101398.81;5038288;28;45495;-84
2023/07/20 01:04:05;;;;;;;;;3.00;3.00;;;;;21.45;100.00;101401.59;5016161;28;45588;-85
2023/07/20 01:06:52;;;;;;;;;4.67;3.00;;;;;21.40;100.00;101403.53;5035006;28;45470;-84
2023/07/20 01:09:48;;;;;;;;;4.33;3.00;;;;;21.39;100.00;101404.44;5023990;28;45466;-87
2023/07/20 01:12:22;;;;;;;;;5.00;3.00;;;;;21.34;100.00;101392.06;5037537;28;45456;-85
2023/07/20 01:14:48;;;;;;;;;3.00;3.00;;;;;21.31;100.00;101395.72;5037715;28;46566;-84
2023/07/20 01:17:14;;;;;;;;;3.00;3.00;;;;;21.30;100.00;101398.41;5024446;28;45567;-84
2023/07/20 01:19:39;;;;;;;;;4.00;4.00;;;;;21.27;100.00;101393.09;5019922;28;45457;-85
2023/07/20 01:22:08;;;;;;;;;4.33;3.00;;;;;21.26;100.00;101399.41;5036474;28;45599;-84
2023/07/20 01:24:57;;;;;;;;;4.33;3.00;;;;;21.22;100.00;101390.53;5028365;28;48621;-84
2023/07/20 01:27:46;;;;;;;;;2.33;2.33;;;;;21.19;100.00;101393.25;5016709;28;45435;-85
2023/07/20 01:30:46;;;;;;;;;4.00;2.67;;;;;21.16;100.00;101396.03;5024499;28;45554;-84
2023/07/20 01:33:15;;;;;;;;;3.00;3.00;;;;;21.09;100.00;101389.94;5028268;28;45325;-86
2023/07/20 01:35:43;;;;;;;;;3.00;3.00;;;;;21.07;100.00;101382.81;5037085;28;48052;-84
2023/07/20 01:38:08;;;;;;;;;4.00;4.00;;;;;21.05;100.00;101379.31;5036398;28;45325;-84
2023/07/20 01:40:34;;;;;;;;;4.00;4.00;;;;;21.02;100.00;101384.72;5035846;28;65755;-84
2023/07/20 01:43:00;;;;;;;;;2.00;2.00;;;;;21.02;100.00;101379.34;5030727;28;45649;-84
2023/07/20 01:45:26;;;;;;;;;3.67;2.00;;;;;21.00;100.00;101383.91;5034975;28;46695;-86
2023/07/20 01:47:52;;;;;;;;;3.67;3.00;;;;;20.96;100.00;101377.69;5037068;28;45407;-85
2023/07/20 01:50:17;;;;;;;;;2.33;2.33;;;;;20.96;100.00;101384.88;5036949;28;59400;-85
2023/07/20 01:52:42;;;;;;;;;3.00;3.00;;;;;20.91;100.00;101372.44;5036920;28;45253;-84
2023/07/20 01:55:08;;;;;;;;;3.33;3.33;;;;;20.89;100.00;101366.22;5036955;28;66043;-86
2023/07/20 01:57:34;;;;;;;;;4.00;2.33;;;;;20.85;100.00;101361.84;5025409;28;45357;-85
2023/07/20 01:59:59;;;;;;;;;1.33;1.00;;;;;20.86;100.00;101374.34;5034132;28;45225;-84
2023/07/20 02:02:27;;;;;;;;;2.00;2.00;;;;;20.84;100.00;101369.94;5035846;28;45184;-84
2023/07/20 02:04:52;;;;;;;;;3.00;2.00;;;;;20.80;100.00;101371.81;5033677;28;47630;-85
2023/07/20 02:07:18;;;;;;;;;2.33;2.00;;;;;20.79;100.00;101369.16;5036850;28;62979;-85
2023/07/20 02:09:43;;;;;;;;;3.33;3.33;;;;;20.76;100.00;101369.22;5030175;28;50966;-85
2023/07/20 02:12:09;;;;;;;;;2.00;2.00;;;;;20.70;100.00;101370.25;5019809;28;45594;-86
2023/07/20 02:14:34;;;;;;;;;3.00;2.67;;;;;20.72;100.00;101365.75;5014264;28;48694;-84
2023/07/20 02:17:01;;;;;;;;;4.67;3.00;;;;;20.69;100.00;101368.47;5035040;28;68279;-87
2023/07/20 02:19:26;;;;;;;;;3.00;3.00;;;;;20.65;100.00;101364.97;5033203;28;45419;-84
2023/07/20 02:21:52;;;;;;;;;2.00;2.00;;;;;20.61;100.00;101360.63;5037449;28;45452;-84
2023/07/20 02:24:17;;;;;;;;;2.33;2.33;;;;;20.60;100.00;101363.31;5014501;28;47405;-84
2023/07/20 02:26:43;;;;;;;;;5.33;2.00;;;;;20.57;100.00;101358.03;5035311;28;60975;-85
2023/07/20 02:29:11;;;;;;;;;3.33;3.33;;;;;20.54;100.00;101353.59;5035650;28;45329;-84
2023/07/20 02:31:37;;;;;;;;;2.33;2.33;;;;;20.50;100.00;101356.38;5026598;28;45544;-84
2023/07/20 02:34:02;;;;;;;;;3.67;3.67;;;;;20.51;100.00;101366.22;5030652;28;48608;-84
2023/07/20 02:36:28;;;;;;;;;4.67;3.00;;;;;20.48;100.00;101366.25;5014931;28;46361;-84
2023/07/20 02:38:53;;;;;;;;;4.00;3.00;;;;;20.46;100.00;101366.31;5033843;28;60071;-86
2023/07/20 02:41:19;;;;;;;;;4.33;3.00;;;;;20.43;100.00;101358.28;5036125;28;57203;-84
2023/07/20 02:43:44;;;;;;;;;6.00;3.33;;;;;20.42;100.00;101372.63;5001413;28;48301;-84
2023/07/20 02:46:09;;;;;;;;;5.33;3.67;;;;;20.41;100.00;101373.53;5033438;28;64742;-84
2023/07/20 02:48:35;;;;;;;;;4.67;3.33;;;;;20.38;100.00;101368.22;5036562;28;45292;-84
2023/07/20 02:51:00;;;;;;;;;3.33;3.33;;;;;20.38;100.00;101368.22;5035566;28;45239;-85
2023/07/20 02:53:26;;;;;;;;;3.33;2.00;;;;;20.38;100.00;101374.47;5035063;28;63394;-87
2023/07/20 02:55:51;;;;;;;;;3.00;3.00;;;;;20.38;100.00;101369.09;5035437;28;45442;-83
2023/07/20 02:58:16;;;;;;;;;4.67;3.00;;;;;20.38;100.00;101370.91;5034318;28;62268;-84
2023/07/20 03:00:42;;;;;;;;;3.00;3.00;;;;;20.40;100.00;101371.78;5036446;28;45527;-84
2023/07/20 03:03:09;;;;;;;;;3.00;3.00;;;;;20.37;100.00;101367.34;5033590;28;45943;-84
2023/07/20 03:05:35;;;;;;;;;6.00;3.00;;;;;20.35;100.00;101365.63;5027762;28;45241;-86
2023/07/20 03:08:02;;;;;;;;;5.00;3.00;;;;;20.39;100.00;101368.19;5036595;28;45416;-85
2023/07/20 03:10:28;;;;;;;;;3.00;3.00;;;;;20.41;100.00;101369.06;5036022;28;45545;-84
2023/07/20 03:12:53;;;;;;;;;4.33;4.33;;;;;20.41;100.00;101368.16;5030897;28;48495;-84
2023/07/20 03:15:18;;;;;;;;;2.67;2.67;;;;;20.40;100.00;101367.28;5029094;28;62530;-84
2023/07/20 03:17:44;;;;;;;;;3.33;2.67;;;;;20.38;100.00;101368.22;5035775;28;45898;-84
2023/07/20 03:20:10;;;;;;;;;6.00;4.00;;;;;20.36;100.00;101360.22;5034759;28;59303;-84
2023/07/20 03:22:35;;;;;;;;;3.33;3.00;;;;;20.36;100.00;101365.56;5035987;28;46060;-86
2023/07/20 03:25:00;;;;;;;;;4.00;2.00;;;;;20.41;100.00;101369.06;5024013;28;45357;-84
2023/07/20 03:27:26;;;;;;;;;5.00;3.00;;;;;20.36;100.00;101362.91;5015281;28;45541;-84
2023/07/20 03:29:51;;;;;;;;;4.33;3.00;;;;;20.36;100.00;101362.91;5028454;28;45516;-84
2023/07/20 03:32:16;;;;;;;;;4.00;3.00;;;;;20.38;100.00;101373.59;5008198;28;57357;-86
2023/07/20 03:34:44;;;;;;;;;6.67;2.00;;;;;20.35;100.00;101363.81;5027611;28;58760;-85
2023/07/20 03:37:09;;;;;;;;;3.00;3.00;;;;;20.34;100.00;101370.06;5027962;28;45282;-86
2023/07/20 03:39:34;;;;;;;;;4.00;4.00;;;;;20.32;100.00;101366.56;5020265;28;45507;-84
2023/07/20 03:42:00;;;;;;;;;2.67;2.00;;;;;20.31;100.00;101372.84;5017730;28;48019;-84
2023/07/20 03:44:25;;;;;;;;;2.67;2.67;;;;;20.31;100.00;101382.69;5021000;28;45222;-84
2023/07/20 03:46:50;;;;;;;;;4.67;3.00;;;;;20.30;100.00;101384.50;5053326;28;46561;-84
2023/07/20 03:49:16;;;;;;;;;4.67;2.00;;;;;20.26;100.00;101376.53;5028419;28;57785;-84
2023/07/20 03:51:41;;;;;;;;;1.67;1.67;;;;;20.23;100.00;101372.09;5031753;28;46747;-85
2023/07/20 03:54:07;;;;;;;;;3.00;3.00;;;;;20.19;100.00;101377.53;5027465;28;48040;-83
2023/07/20 03:56:35;;;;;;;;;3.67;3.00;;;;;20.13;100.00;101373.19;5036473;28;45857;-84
2023/07/20 03:59:00;;;;;;;;;4.33;2.67;;;;;20.13;100.00;101379.47;5026052;28;45673;-85
2023/07/20 04:01:25;;;;;;;;;5.67;4.00;;;;;20.11;100.00;101367.88;5039248;28;46144;-84
2023/07/20 04:03:51;;;;;;;;;5.00;3.00;;;;;20.10;100.00;101375.94;5033183;28;60853;-83
2023/07/20 04:06:17;;;;;;;;;4.00;4.00;;;;;20.09;100.00;101360.78;5038728;28;57040;-85
2023/07/20 04:08:43;;;;;;;;;3.00;3.00;;;;;20.11;100.00;101375.03;5037917;28;45505;-84
2023/07/20 04:11:08;;;;;;;;;3.67;3.67;;;;;20.08;100.00;101359.00;5030979;28;48528;-83
2023/07/20 04:13:34;;;;;;;;;5.00;2.33;;;;;20.11;100.00;101375.03;5036282;28;67958;-84
2023/07/20 04:15:59;;;;;;;;;4.00;2.33;;;;;20.10;100.00;101370.59;5033025;28;45515;-85
2023/07/20 04:18:25;;;;;;;;;3.67;2.67;;;;;20.10;100.00;101365.22;5034231;28;45509;-84
2023/07/20 04:20:50;;;;;;;;;9.00;2.00;;;;;20.10;100.00;101365.22;5038285;28;45327;-83
2023/07/20 04:23:16;;;;;;;;;5.00;3.33;;;;;20.08;100.00;101365.25;5033322;28;46653;-83
2023/07/20 04:25:41;;;;;;;;;3.00;3.00;;;;;20.10;100.00;101362.53;5039139;28;45392;-84
2023/07/20 04:28:08;;;;;;;;;5.00;3.33;;;;;20.08;100.00;101359.00;5037661;28;45583;-86
2023/07/20 04:30:35;;;;;;;;;5.00;3.33;;;;;20.09;100.00;101361.66;5036593;28;47093;-83
2023/07/20 04:33:01;;;;;;;;;6.33;4.00;;;;;20.09;100.00;101366.16;5031339;28;45601;-84
2023/07/20 04:35:52;;;;;;;;;3.00;3.00;;;;;20.10;100.00;101362.53;5038613;28;48789;-84
2023/07/20 04:38:17;;;;;;;;;4.00;3.00;;;;;20.11;100.00;101361.63;5027888;28;45478;-86
2023/07/20 04:40:47;;;;;;;;;4.67;3.00;;;;;20.11;100.00;101358.94;5032080;28;45896;-84
2023/07/20 04:43:14;;;;;;;;;2.67;2.67;;;;;20.09;100.00;101356.31;5030919;28;45498;-84
2023/07/20 04:45:39;;;;;;;;;4.00;3.00;;;;;20.10;100.00;101360.75;5020755;28;45501;-84
2023/07/20 04:48:12;;;;;;;;;4.00;2.67;;;;;20.11;100.00;101357.13;5038861;28;45568;-83
2023/07/20 04:50:41;;;;;;;;;2.33;2.33;;;;;20.10;100.00;101362.53;5031568;28;46923;-84
2023/07/20 04:53:08;;;;;;;;;2.00;2.00;;;;;20.09;100.00;101363.47;5037070;28;45408;-84
2023/07/20 04:55:33;;;;;;;;;2.67;2.00;;;;;20.08;100.00;101367.03;5020866;28;45278;-83
2023/07/20 04:58:00;;;;;;;;;4.33;3.00;;;;;20.05;100.00;101362.63;5038403;28;45377;-84
2023/07/20 05:00:26;;;;;;;;;7.00;2.67;;;;;20.01;100.00;101368.97;5020765;28;45704;-83
2023/07/20 05:02:51;;;;;;;;;1.67;1.33;;;;;19.99;100.00;101369.91;5037929;28;45416;-84
2023/07/20 05:05:16;;;;;;;;;5.67;3.33;;;;;19.95;100.00;101362.84;5020323;28;45413;-83
2023/07/20 05:07:42;;;;;;;;;3.00;3.00;;;;;19.96;100.00;101369.97;5036849;28;60507;-83
2023/07/20 05:10:07;;;;;;;;;3.67;3.00;;;;;19.96;100.00;101367.28;5029207;28;67765;-83
2023/07/20 05:12:33;;;;;;;;;4.00;4.00;;;;;19.94;100.00;101355.72;5037824;28;45366;-83
2023/07/20 05:14:58;;;;;;;;;3.33;2.00;;;;;19.96;100.00;101368.16;5034895;28;59272;-83
2023/07/20 05:17:24;;;;;;;;;2.33;1.00;;;;;19.97;100.00;101374.41;5061803;22;45333;-84
2023/07/20 05:19:50;;;;;;;;;5.00;4.00;;;;;19.96;100.00;101376.19;5011422;28;46648;-84
2023/07/20 05:22:15;;;;;;;;;3.00;3.00;;;;;19.94;100.00;101372.69;5003837;28;45171;-84
2023/07/20 05:24:41;;;;;;;;;4.33;2.00;;;;;19.96;100.00;101383.38;5017648;28;45453;-84
2023/07/20 05:27:06;;;;;;;;;5.00;3.00;;;;;19.94;100.00;101385.22;5014684;28;63182;-84
2023/07/20 05:29:32;;;;;;;;;5.67;2.67;;;;;19.92;100.00;101387.00;5008857;28;62941;-84
2023/07/20 05:31:58;;;;;;;;;4.67;4.00;;;;;19.88;100.00;101391.56;5012881;28;45427;-84
2023/07/20 05:34:23;;;;;;;;;4.00;4.00;;;;;19.85;100.00;101395.16;5001980;28;45356;-84
2023/07/20 05:36:49;;;;;;;;;4.33;3.33;;;;;19.81;100.00;101389.88;5006663;28;58859;-81
2023/07/20 05:39:16;;;;;;;;;3.33;1.67;;;;;19.76;100.00;101384.63;5017846;28;45828;-83
2023/07/20 05:41:42;;;;;;;;;3.67;2.67;;;;;19.78;100.00;101392.66;5016022;28;45469;-84
2023/07/20 05:44:07;;;;;;;;;3.33;3.33;;;;;19.70;100.00;101390.06;5016033;28;61287;-86
2023/07/20 05:46:32;;;;;;;;;3.67;3.00;;;;;19.71;100.00;101385.59;5005080;28;55704;-84
2023/07/20 05:48:58;;;;;;;;;3.00;3.00;;;;;19.70;100.00;101387.41;4995937;28;70849;-85
2023/07/20 05:51:23;;;;;;;;;4.67;3.00;;;;;19.70;100.00;101386.53;5010715;28;59023;-84
2023/07/20 05:53:48;;;;;;;;;4.00;2.67;;;;;19.71;100.00;101390.97;5017172;28;53073;-84
2023/07/20 05:56:14;;;;;;;;;2.00;2.00;;;;;19.75;100.00;101385.53;5017538;28;45277;-84
2023/07/20 05:58:39;;;;;;;;;3.00;3.00;;;;;19.78;100.00;101393.53;5017205;28;45924;-87
2023/07/20 06:01:07;;;;;;;;;6.00;3.00;;;;;19.76;100.00;101381.03;5006827;28;45336;-84
2023/07/20 06:03:37;;;;;;;;;1.67;1.67;;;;;19.77;100.00;101378.38;5019415;28;45295;-83
2023/07/20 06:06:04;;;;;;;;;4.67;2.33;;;;;19.78;100.00;101379.25;5006688;28;45508;-84
2023/07/20 06:08:29;;;;;;;;;3.67;3.67;;;;;19.79;100.00;101383.69;5003573;28;47679;-83
2023/07/20 06:10:54;;;;;;;;;3.33;3.33;;;;;19.79;100.00;101381.88;5004018;28;45497;-84
2023/07/20 06:13:20;;;;;;;;;9.00;3.67;;;;;19.77;100.00;101370.31;5017612;28;45427;-84
2023/07/20 06:15:45;;;;;;;;;6.00;5.00;;;;;19.83;100.00;101380.94;5017732;28;45595;-87
2023/07/20 06:18:11;;;;;;;;;6.33;5.00;;;;;19.82;100.00;101376.47;5008618;28;48294;-85
2023/07/20 06:20:36;;;;;;;;;6.67;5.33;;;;;19.84;100.00;101376.44;4998147;28;45307;-85
2023/07/20 06:23:01;;;;;;;;;7.67;5.00;;;;;19.85;100.00;101383.56;5014319;28;56160;-84
2023/07/20 06:25:27;;;;;;;;;6.00;4.33;;;;;19.83;100.00;101377.38;5007827;28;45461;-84
2023/07/20 06:27:52;;;;;;;;;9.00;7.00;;;;;19.84;100.00;101376.44;4990315;28;68153;-85
2023/07/20 06:30:18;;;;;;;;;6.67;4.33;;;;;19.85;100.00;101384.44;5010199;28;45220;-82
2023/07/20 06:32:43;;;;;;;;;6.33;5.67;;;;;19.86;100.00;101374.59;5016597;28;45452;-84
2023/07/20 06:35:09;;;;;;;;;4.00;3.67;;;;;19.86;100.00;101375.50;5001062;28;60495;-86
2023/07/20 06:37:35;;;;;;;;;9.00;5.33;;;;;19.89;100.00;101382.59;5016138;28;46206;-84
2023/07/20 06:40:01;;;;;;;;;4.67;4.67;;;;;19.93;100.00;101384.31;5015208;28;45321;-84
2023/07/20 06:42:26;;;;;;;;;7.67;7.67;;;;;19.92;100.00;101374.53;5006699;28;45467;-84
2023/07/20 06:44:52;;;;;;;;;6.33;6.00;;;;;19.93;100.00;101373.59;5013509;28;55316;-84
2023/07/20 06:47:17;;;;;;;;;12.00;10.00;;;;;19.96;100.00;101378.88;4998353;28;60698;-84
2023/07/20 06:49:42;;;;;;;;;13.00;9.67;;;;;19.96;100.00;101378.88;5005541;28;68400;-85
2023/07/20 06:52:08;;;;;;;;;10.33;9.33;;;;;19.99;100.00;101375.28;5016524;28;45451;-84
2023/07/20 06:54:33;;;;;;;;;8.00;6.00;;;;;19.98;100.00;101381.56;5015282;28;58973;-84
2023/07/20 06:56:59;;;;;;;;;6.67;5.67;;;;;19.99;100.00;101384.19;5003052;28;67608;-84
2023/07/20 06:59:24;;;;;;;;;7.00;7.00;;;;;20.01;100.00;101379.69;5015171;28;45334;-84
2023/07/20 07:01:50;;;;;;;;;8.33;5.67;;;;;20.01;100.00;101373.44;5016041;28;60911;-83
2023/07/20 07:04:15;;;;;;;;;8.00;6.67;;;;;20.06;100.00;101369.75;5007458;28;45608;-84
2023/07/20 07:06:41;;;;;;;;;9.00;5.33;;;;;20.14;100.00;101373.19;5013621;28;45583;-85
2023/07/20 07:09:08;;;;;;;;;6.67;6.67;;;;;20.20;100.00;101376.66;5008955;28;45203;-84
2023/07/20 07:11:33;;;;;;;;;6.33;6.00;;;;;20.23;100.00;101368.53;5008391;28;45295;-84
2023/07/20 07:13:59;;;;;;;;;7.33;5.00;;;;;20.24;100.00;101365.84;5015047;28;45196;-87
2023/07/20 07:16:24;;;;;;;;;5.00;5.00;;;;;20.28;100.00;101375.56;5015476;28;66807;-84
2023/07/20 07:18:50;;;;;;;;;4.67;4.00;;;;;20.30;100.00;101373.75;5011223;28;64457;-84
2023/07/20 07:21:16;;;;;;;;;5.67;4.00;;;;;20.33;100.00;101365.63;5009664;28;45371;-84
2023/07/20 07:23:41;;;;;;;;;4.33;4.33;;;;;20.37;100.00;101369.16;5002534;28;45411;-84
2023/07/20 07:26:07;;;;;;;;;7.00;4.67;;;;;20.44;100.00;101370.78;5010439;28;45627;-85
2023/07/20 07:28:32;;;;;;;;;6.67;5.67;;;;;20.45;100.00;101360.91;5007052;28;66484;-84
2023/07/20 07:30:58;;;;;;;;;7.00;5.00;;;;;20.52;100.00;101363.50;5014082;28;45262;-84
2023/07/20 07:33:23;;;;;;;;;6.00;5.33;;;;;20.54;100.00;101377.75;5008989;28;45313;-84
2023/07/20 07:35:49;;;;;;;;;6.00;6.00;;;;;20.54;100.00;101374.19;5009622;28;47156;-86
2023/07/20 07:38:15;;;;;;;;;7.00;6.00;;;;;20.57;100.00;101369.63;5007801;28;45418;-84
2023/07/20 07:40:40;;;;;;;;;5.00;5.00;;;;;20.58;100.00;101373.19;5031678;28;45210;-85
2023/07/20 07:43:05;;;;;;;;;6.33;5.00;;;;;20.62;100.00;101366.88;5012531;28;45631;-84
2023/07/20 07:45:35;;;;;;;;;4.00;4.00;;;;;20.65;100.00;101372.16;5000401;28;46070;-87
2023/07/20 07:48:01;;;;;;;;;6.33;5.33;;;;;20.68;100.00;101372.09;5008430;28;45306;-86
2023/07/20 07:50:27;;;;;;;;;5.00;5.00;;;;;20.70;100.00;101372.94;5002489;28;45221;-84
2023/07/20 07:52:52;;;;;;;;;6.33;6.00;;;;;20.78;100.00;101370.09;5003906;28;45250;-84
2023/07/20 07:55:17;;;;;;;;;5.00;5.00;;;;;20.81;100.00;101370.00;5012997;28;67171;-84
2023/07/20 07:57:43;;;;;;;;;7.00;5.00;;;;;20.82;100.00;101375.31;5015180;28;45387;-84
2023/07/20 08:00:14;;;;;;;;;7.67;6.67;;;;;20.84;100.00;101378.88;5000280;28;45389;-85
2023/07/20 08:02:40;;;;;;;;;7.00;4.33;;;;;20.82;100.00;101359.22;5012340;28;45454;-84
2023/07/20 08:05:05;;;;;;;;;6.00;5.33;;;;;20.86;100.00;101357.34;4996568;28;47536;-84
2023/07/20 08:07:30;;;;;;;;;7.67;6.00;;;;;20.90;100.00;101361.75;5010120;28;45308;-84
2023/07/20 08:09:56;;;;;;;;;6.33;5.33;;;;;20.94;100.00;101360.75;5015243;28;63375;-84
2023/07/20 08:12:21;;;;;;;;;5.33;5.33;;;;;21.00;100.00;101367.78;5002935;28;45287;-84
2023/07/20 08:14:46;;;;;;;;;8.00;6.33;;;;;21.01;100.00;101365.06;5013072;28;47739;-84
2023/07/20 08:17:12;;;;;;;;;5.33;5.33;;;;;21.04;100.00;101358.72;5007041;28;45513;-85
2023/07/20 08:19:41;;;;;;;;;9.00;8.00;;;;;21.09;100.00;101359.50;5013301;28;57052;-87
2023/07/20 08:22:06;;;;;;;;;4.67;4.67;;;;;21.18;100.00;101352.09;5021014;28;45273;-84
2023/07/20 08:24:32;;;;;;;;;5.00;5.00;;;;;21.24;100.00;101347.50;5011238;28;45716;-85
2023/07/20 08:26:57;;;;;;;;;5.00;4.67;;;;;21.31;100.00;101357.22;5006633;28;45445;-83
2023/07/20 08:29:23;;;;;;;;;4.00;4.00;;;;;21.31;100.00;101351.84;5002838;28;63068;-84
2023/07/20 08:31:49;;;;;;;;;9.33;4.00;;;;;21.31;100.00;101351.84;5009808;28;45384;-84
2023/07/20 08:34:14;;;;;;;;;6.67;5.67;;;;;21.36;100.00;101352.59;5006322;28;46278;-84
2023/07/20 08:36:39;;;;;;;;;4.00;4.00;;;;;21.40;100.00;101351.59;5005116;28;45488;-84
2023/07/20 08:39:05;;;;;;;;;4.33;4.00;;;;;21.43;100.00;101346.16;5015749;28;45309;-84
2023/07/20 08:41:30;;;;;;;;;4.67;4.00;;;;;21.47;100.00;101339.78;5004239;28;52443;-84
2023/07/20 08:43:57;;;;;;;;;7.00;5.00;;;;;21.51;100.00;101327.13;5009406;28;47249;-85
2023/07/20 08:46:23;;;;;;;;;7.00;4.00;;;;;21.60;100.00;101343.03;4997873;28;45319;-84
2023/07/20 08:48:49;;;;;;;;;4.00;2.00;;;;;21.62;100.00;101331.28;4999043;28;45461;-84
2023/07/20 08:51:15;;;;;;;;;4.00;4.00;;;;;21.67;100.00;101324.00;5009289;28;55014;-84
2023/07/20 08:53:41;;;;;;;;;4.00;4.00;;;;;21.76;100.00;101322.00;4999872;28;60571;-84
2023/07/20 08:56:06;;;;;;;;;3.67;3.67;;;;;21.83;100.00;101321.75;5016414;28;67226;-82
2023/07/20 08:58:33;;;;;;;;;6.00;4.00;;;;;21.86;100.00;101332.44;5015599;28;45369;-82
2023/07/20 09:01:00;;;;;;;;;7.67;3.00;;;;;21.89;100.00;101329.69;5017593;28;45452;-84
2023/07/20 09:03:26;;;;;;;;;4.00;4.00;;;;;21.96;100.00;101333.97;5009438;28;48532;-85
2023/07/20 09:05:52;;;;;;;;;4.33;3.00;;;;;22.03;100.00;101331.97;5012246;28;62801;-83
2023/07/20 09:08:17;;;;;;;;;4.00;4.00;;;;;22.06;100.00;101331.03;5016866;28;45312;-82
2023/07/20 09:10:42;;;;;;;;;9.33;4.00;;;;;22.10;100.00;101321.91;5003392;28;64353;-83
2023/07/20 09:13:08;;;;;;;;;4.33;4.33;;;;;22.18;100.00;101330.69;5008584;28;66588;-82
2023/07/20 09:15:33;;;;;;;;;4.00;3.00;;;;;22.28;100.00;101331.31;5016475;28;66441;-84
2023/07/20 09:18:02;;;;;;;;;9.33;4.67;;;;;22.34;100.00;101326.63;5006350;28;45351;-85
2023/07/20 09:20:27;;;;;;;;;3.00;3.00;;;;;22.43;100.00;101314.72;5013764;28;45627;-88
2023/07/20 09:22:52;;;;;;;;;2.33;2.00;;;;;22.48;100.00;101313.63;5010574;28;46373;-84
2023/07/20 09:25:22;;;;;;;;;4.00;3.00;;;;;22.53;100.00;101312.59;5010061;28;61661;-84
2023/07/20 09:27:49;;;;;;;;;3.67;3.00;;;;;22.59;100.00;101309.72;5016581;28;45358;-83
2023/07/20 09:30:15;;;;;;;;;3.00;3.00;;;;;22.64;100.00;101311.34;5011027;28;45460;-83
2023/07/20 09:32:44;;;;;;;;;3.67;3.67;;;;;22.71;100.00;101318.28;5004669;28;46028;-82
2023/07/20 09:35:14;;;;;;;;;2.00;2.00;;;;;22.78;100.00;101312.72;5014760;28;46103;-83
2023/07/20 09:37:40;;;;;;;;;2.67;2.00;;;;;22.81;100.00;101309.94;5017081;28;45239;-84
2023/07/20 09:40:08;;;;;;;;;2.00;2.00;;;;;22.85;100.00;101309.78;5016297;28;45214;-83
2023/07/20 09:42:35;;;;;;;;;1.67;1.67;;;;;22.87;100.00;101305.22;5015028;28;46252;-84
2023/07/20 09:45:00;;;;;;;;;1.00;1.00;;;;;22.95;100.00;101300.47;5005420;28;45420;-82
2023/07/20 09:47:26;;;;;;;;;3.00;2.00;;;;;23.02;100.00;101305.69;5005787;28;61096;-84
2023/07/20 09:49:59;;;;;;;;;3.33;2.00;;;;;23.06;100.00;101300.13;5004126;28;45399;-85
2023/07/20 09:52:25;;;;;;;;;3.00;3.00;;;;;23.10;100.00;101293.72;5009389;28;47575;-84
2023/07/20 09:54:51;;;;;;;;;3.33;3.33;;;;;23.14;100.00;101290.00;5013370;28;45685;-85
2023/07/20 09:57:16;;;;;;;;;2.33;2.00;;;;;23.21;100.00;101298.75;5014906;28;62946;-84
2023/07/20 09:59:42;;;;;;;;;2.67;2.00;;;;;23.27;100.00;101293.13;5032334;28;56596;-84
2023/07/20 10:02:33;;;;;;;;;2.00;2.00;;;;;23.35;100.00;101290.19;5010434;28;47426;-82
2023/07/20 10:05:02;;;;;;;;;3.33;1.33;;;;;23.44;100.00;101290.75;5005298;28;45359;-82
2023/07/20 10:07:30;;;;;;;;;2.00;2.00;;;;;23.56;100.00;101284.03;5013126;28;45363;-82
2023/07/20 10:09:56;;;;;;;;;3.00;2.00;;;;;23.75;100.00;101284.28;5009179;28;45459;-82
2023/07/20 10:12:23;;;;;;;;;1.33;1.33;;;;;23.90;100.00;101282.84;5008916;28;46539;-82
2023/07/20 10:15:09;;;;;;;;;3.00;2.00;;;;;24.08;99.58;101284.00;5017064;28;45618;-84
2023/07/20 10:17:36;;;;;;;;;3.00;1.00;;;;;24.15;99.37;101275.59;5016959;28;45408;-82
2023/07/20 10:20:03;;;;;;;;;2.00;2.00;;;;;24.18;98.95;101271.88;4999478;28;45558;-82
2023/07/20 10:22:31;;;;;;;;;1.67;1.67;;;;;24.19;96.97;101277.25;4999245;28;47628;-82
2023/07/20 10:24:58;;;;;;;;;2.67;2.00;;;;;24.18;95.98;101267.38;5010978;28;45176;-84
2023/07/20 10:27:24;;;;;;;;;2.00;2.00;;;;;24.16;95.54;101262.97;5007624;28;45208;-84
2023/07/20 10:29:51;;;;;;;;;3.67;1.00;;;;;24.17;94.83;101265.59;5008225;28;45396;-82
2023/07/20 10:32:16;;;;;;;;;1.67;1.67;;;;;24.21;94.47;101261.84;4998752;28;47709;-85
2023/07/20 10:34:42;;;;;;;;;2.00;2.00;;;;;24.32;94.30;101261.44;5016307;28;59441;-82
2023/07/20 10:37:08;;;;;;;;;4.00;2.00;;;;;24.39;94.06;101254.88;5017274;28;45387;-83
2023/07/20 10:39:33;;;;;;;;;1.67;1.67;;;;;24.43;93.33;101247.56;5012547;28;45611;-86
2023/07/20 10:42:03;;;;;;;;;3.00;1.33;;;;;24.51;92.36;101238.22;5013235;28;45628;-82
2023/07/20 10:44:30;;;;;;;;;1.00;1.00;;;;;24.54;92.40;101239.91;5004534;28;45509;-83
2023/07/20 10:47:00;;;;;;;;;1.67;1.67;;;;;24.60;91.08;101236.06;5006662;28;45365;-83
2023/07/20 10:49:26;;;;;;;;;2.00;2.00;;;;;24.65;90.83;101243.03;5006388;28;46380;-82
2023/07/20 10:52:12;;;;;;;;;2.00;2.00;;;;;24.71;91.14;101245.47;5008112;28;45852;-85
2023/07/20 10:54:48;;;;;;;;;4.67;1.33;;;;;24.76;89.87;101242.59;5016365;28;45325;-82
2023/07/20 10:57:31;;;;;;;;;0.00;0.00;;;;;24.81;88.01;101246.84;5003803;28;45262;-84
2023/07/20 11:00:11;;;;;;;;;2.00;2.00;;;;;24.93;87.59;101240.09;5012370;28;45525;-83
2023/07/20 11:02:47;;;;;;;;;3.67;2.00;;;;;25.08;87.47;101235.88;5028698;28;49047;-84
2023/07/20 11:05:32;;;;;;;;;3.00;1.00;;;;;25.27;86.34;101244.06;4987026;28;45418;-82
2023/07/20 11:07:57;;;;;;;;;1.00;1.00;;;;;25.47;85.73;101245.91;5011454;28;45500;-83
2023/07/20 11:10:22;;;;;;;;;1.00;1.00;;;;;25.58;83.46;101230.94;5014328;28;63712;-82
2023/07/20 11:13:20;;;;;;;;;1.67;1.00;;;;;25.72;81.94;101235.72;5016432;28;45917;-83
2023/07/20 11:15:58;;;;;;;;;1.00;1.00;;;;;25.82;80.68;101230.81;5014275;28;45957;-83